createdAt,value
2017-06-27T00:01:13.437Z,48.44
2017-06-27T00:02:13.291Z,48.54
2017-06-27T00:03:13.226Z,48.16
2017-06-27T00:04:13.164Z,48.25
2017-06-27T00:05:13.100Z,48.44
2017-06-27T00:06:13.048Z,48.35
2017-06-27T00:07:12.649Z,48.35
2017-06-27T00:08:12.912Z,48.35
2017-06-27T00:09:12.848Z,48.16
2017-06-27T00:10:12.792Z,48.16
2017-06-27T00:11:12.728Z,48.44
2017-06-27T00:12:12.664Z,48.44
2017-06-27T00:13:12.601Z,48.35
2017-06-27T00:14:12.537Z,48.25
2017-06-27T00:15:12.487Z,48.35
2017-06-27T00:16:12.412Z,48.64
2017-06-27T00:17:12.351Z,48.25
2017-06-27T00:18:12.287Z,48.54
2017-06-27T00:19:12.225Z,48.35
2017-06-27T00:20:12.164Z,48.16
2017-06-27T00:21:12.104Z,48.44
2017-06-27T00:22:12.034Z,48.35
2017-06-27T00:23:11.976Z,48.35
2017-06-27T00:24:11.912Z,48.16
2017-06-27T00:25:11.849Z,48.54
2017-06-27T00:26:11.785Z,48.44
2017-06-27T00:27:11.723Z,48.25
2017-06-27T00:28:11.663Z,48.35
2017-06-27T00:29:11.599Z,48.25
2017-06-27T00:30:11.534Z,48.16
2017-06-27T00:31:11.473Z,48.25
2017-06-27T00:32:11.411Z,48.44
2017-06-27T00:33:11.347Z,48.25
2017-06-27T00:34:11.284Z,48.16
2017-06-27T00:35:11.223Z,48.16
2017-06-27T00:36:11.160Z,48.25
2017-06-27T00:37:11.099Z,48.64
2017-06-27T00:38:11.034Z,48.25
2017-06-27T00:39:10.973Z,48.16
2017-06-27T00:40:10.910Z,48.16
2017-06-27T00:41:10.846Z,48.44
2017-06-27T00:42:10.782Z,48.25
2017-06-27T00:43:10.722Z,48.25
2017-06-27T00:44:10.659Z,48.44
2017-06-27T00:45:10.598Z,48.16
2017-06-27T00:46:10.535Z,48.16
2017-06-27T00:47:10.471Z,48.25
2017-06-27T00:48:10.407Z,48.44
2017-06-27T00:49:10.368Z,48.25
2017-06-27T00:50:10.296Z,48.16
2017-06-27T00:51:10.230Z,48.25
2017-06-27T00:52:10.160Z,48.83
2017-06-27T00:53:10.096Z,48.25
2017-06-27T00:54:10.040Z,48.16
2017-06-27T00:55:09.980Z,48.16
2017-06-27T00:56:09.907Z,48.25
2017-06-27T00:57:09.847Z,48.16
2017-06-27T00:58:09.801Z,48.16
2017-06-27T00:59:09.732Z,48.16
2017-06-27T01:00:09.656Z,48.16
2017-06-27T01:01:09.597Z,48.25
2017-06-27T01:02:09.533Z,48.25
2017-06-27T01:03:09.467Z,48.16
2017-06-27T01:04:09.405Z,48.25
2017-06-27T01:05:09.344Z,48.25
2017-06-27T01:06:09.280Z,48.25
2017-06-27T01:07:09.217Z,48.25
2017-06-27T01:08:09.155Z,48.25
2017-06-27T01:09:09.099Z,48.35
2017-06-27T01:10:09.030Z,48.16
2017-06-27T01:11:08.967Z,48.16
2017-06-27T01:12:08.906Z,48.35
2017-06-27T01:13:08.843Z,48.35
2017-06-27T01:14:08.780Z,48.25
2017-06-27T01:15:08.818Z,48.25
2017-06-27T01:16:08.654Z,48.44
2017-06-27T01:17:08.594Z,48.16
2017-06-27T01:18:08.530Z,48.44
2017-06-27T01:19:08.466Z,48.35
2017-06-27T01:20:08.407Z,48.35
2017-06-27T01:21:08.343Z,48.35
2017-06-27T01:22:08.278Z,48.16
2017-06-27T01:23:08.221Z,48.16
2017-06-27T01:24:07.825Z,48.25
2017-06-27T01:25:08.095Z,48.35
2017-06-27T01:26:08.028Z,48.25
2017-06-27T01:27:07.637Z,48.35
2017-06-27T01:28:07.575Z,48.16
2017-06-27T01:29:07.841Z,48.54
2017-06-27T01:30:07.777Z,48.35
2017-06-27T01:31:07.717Z,48.83
2017-06-27T01:32:07.652Z,48.44
2017-06-27T01:33:07.591Z,48.35
2017-06-27T01:34:07.527Z,48.54
2017-06-27T01:35:07.465Z,48.44
2017-06-27T01:36:07.404Z,48.44
2017-06-27T01:37:07.341Z,48.35
2017-06-27T01:38:06.947Z,48.35
2017-06-27T01:39:07.214Z,47.96
2017-06-27T01:40:07.153Z,48.44
2017-06-27T01:41:07.093Z,48.35
2017-06-27T01:42:07.026Z,48.35
2017-06-27T01:43:06.970Z,48.35
2017-06-27T01:44:06.904Z,48.35
2017-06-27T01:45:06.840Z,48.54
2017-06-27T01:46:06.777Z,48.16
2017-06-27T01:47:06.715Z,47.96
2017-06-27T01:48:06.653Z,48.35
2017-06-27T01:49:06.263Z,48.44
2017-06-27T01:50:06.524Z,48.16
2017-06-27T01:51:06.465Z,48.35
2017-06-27T01:52:06.403Z,48.74
2017-06-27T01:53:06.337Z,48.16
2017-06-27T01:54:06.274Z,48.74
2017-06-27T01:55:06.213Z,48.83
2017-06-27T01:56:06.150Z,48.16
2017-06-27T01:57:06.088Z,47.96
2017-06-27T01:58:06.023Z,48.16
2017-06-27T01:59:05.960Z,47.96
2017-06-27T02:00:05.571Z,48.16
2017-06-27T02:01:05.836Z,48.16
2017-06-27T02:02:05.446Z,48.25
2017-06-27T02:03:05.711Z,48.16
2017-06-27T02:04:05.648Z,48.16
2017-06-27T02:05:05.586Z,48.16
2017-06-27T02:06:05.523Z,48.16
2017-06-27T02:07:05.460Z,48.16
2017-06-27T02:08:05.398Z,48.13
2017-06-27T02:09:05.338Z,48.06
2017-06-27T02:10:05.293Z,48.16
2017-06-27T02:11:05.211Z,48.16
2017-06-27T02:12:05.147Z,48.16
2017-06-27T02:13:05.086Z,47.96
2017-06-27T02:14:05.032Z,48.74
2017-06-27T02:15:04.654Z,48.54
2017-06-27T02:16:04.896Z,48.16
2017-06-27T02:17:04.833Z,48.25
2017-06-27T02:18:04.785Z,48.06
2017-06-27T02:19:04.708Z,47.87
2017-06-27T02:20:04.319Z,48.06
2017-06-27T02:21:04.587Z,48.03
2017-06-27T02:22:04.520Z,47.87
2017-06-27T02:23:04.461Z,47.87
2017-06-27T02:24:04.072Z,48.06
2017-06-27T02:25:04.335Z,48.74
2017-06-27T02:26:04.270Z,47.87
2017-06-27T02:27:04.206Z,48.16
2017-06-27T02:28:04.146Z,48.16
2017-06-27T02:29:04.084Z,47.87
2017-06-27T02:30:04.027Z,47.96
2017-06-27T02:31:03.957Z,48.16
2017-06-27T02:32:03.894Z,47.96
2017-06-27T02:33:03.833Z,48.25
2017-06-27T02:34:03.770Z,48.06
2017-06-27T02:35:03.705Z,47.96
2017-06-27T02:36:03.643Z,48.16
2017-06-27T02:37:03.582Z,47.87
2017-06-27T02:38:03.517Z,48.16
2017-06-27T02:39:03.457Z,48.16
2017-06-27T02:40:03.393Z,47.96
2017-06-27T02:41:03.335Z,47.87
2017-06-27T02:42:03.267Z,48.23
2017-06-27T02:43:03.205Z,48.16
2017-06-27T02:44:03.174Z,47.96
2017-06-27T02:45:02.750Z,48.06
2017-06-27T02:46:03.016Z,48.06
2017-06-27T02:47:02.955Z,48.54
2017-06-27T02:48:02.889Z,48.06
2017-06-27T02:49:02.827Z,48.54
2017-06-27T02:50:02.766Z,48.06
2017-06-27T02:51:02.704Z,48.64
2017-06-27T02:52:02.655Z,48.06
2017-06-27T02:53:02.584Z,48.06
2017-06-27T02:54:02.515Z,48.44
2017-06-27T02:55:02.459Z,48.16
2017-06-27T02:56:02.389Z,48.16
2017-06-27T02:57:02.325Z,48.06
2017-06-27T02:58:02.264Z,48.06
2017-06-27T02:59:02.201Z,48.16
2017-06-27T03:00:02.139Z,48.06
2017-06-27T03:01:02.075Z,48.25
2017-06-27T03:02:02.016Z,47.96
2017-06-27T03:03:01.961Z,48.25
2017-06-27T03:04:01.886Z,48.13
2017-06-27T03:05:01.825Z,48.06
2017-06-27T03:06:01.763Z,47.87
2017-06-27T03:07:01.698Z,48.16
2017-06-27T03:08:01.636Z,48.16
2017-06-27T03:09:01.579Z,48.16
2017-06-27T03:10:01.516Z,48.16
2017-06-27T03:11:01.458Z,48.16
2017-06-27T03:12:01.387Z,47.96
2017-06-27T03:13:01.327Z,48.16
2017-06-27T03:14:01.263Z,48.16
2017-06-27T03:15:01.198Z,48.35
2017-06-27T03:16:01.137Z,48.83
2017-06-27T03:17:01.076Z,48.35
2017-06-27T03:18:01.019Z,48.25
2017-06-27T03:19:00.950Z,48.74
2017-06-27T03:20:00.887Z,48.16
2017-06-27T03:21:00.555Z,48.25
2017-06-27T03:22:00.761Z,48.54
2017-06-27T03:23:00.699Z,48.13
2017-06-27T03:24:00.656Z,48.25
2017-06-27T03:25:00.575Z,48.44
2017-06-27T03:26:00.511Z,48.35
2017-06-27T03:27:00.449Z,48.52
2017-06-27T03:28:00.384Z,48.44
2017-06-27T03:29:00.319Z,48.44
2017-06-27T03:30:00.258Z,48.44
2017-06-27T03:31:00.196Z,48.42
2017-06-27T03:32:00.135Z,48.35
2017-06-27T03:33:00.069Z,48.33
2017-06-27T03:34:00.009Z,48.35
2017-06-27T03:35:00.149Z,48.35
2017-06-27T03:35:59.883Z,48.52
2017-06-27T03:36:59.819Z,48.44
2017-06-27T03:37:59.762Z,48.42
2017-06-27T03:38:59.697Z,48.44
2017-06-27T03:39:59.630Z,48.44
2017-06-27T03:40:59.569Z,48.35
2017-06-27T03:41:59.506Z,48.54
2017-06-27T03:42:59.644Z,48.42
2017-06-27T03:43:59.615Z,48.44
2017-06-27T03:44:59.320Z,48.33
2017-06-27T03:45:59.257Z,48.44
2017-06-27T03:46:59.192Z,48.44
2017-06-27T03:47:59.129Z,48.33
2017-06-27T03:48:59.270Z,48.54
2017-06-27T03:49:59.005Z,48.35
2017-06-27T03:50:58.942Z,48.54
2017-06-27T03:51:58.881Z,48.64
2017-06-27T03:52:58.818Z,48.64
2017-06-27T03:53:58.427Z,48.64
2017-06-27T03:54:58.694Z,48.54
2017-06-27T03:56:11.366Z,48.54
2017-06-27T03:56:58.238Z,48.74
2017-06-27T03:57:58.502Z,48.64
2017-06-27T03:58:58.442Z,48.52
2017-06-27T03:59:58.377Z,48.64
2017-06-27T04:00:58.317Z,48.64
2017-06-27T04:01:58.251Z,48.71
2017-06-27T04:02:58.189Z,48.54
2017-06-27T04:03:58.126Z,48.64
2017-06-27T04:04:58.071Z,48.81
2017-06-27T04:05:58.002Z,48.64
2017-06-27T04:06:57.938Z,47.75
2017-06-27T04:07:57.876Z,47.87
2017-06-27T04:08:57.813Z,47.75
2017-06-27T04:09:57.777Z,47.65
2017-06-27T04:10:57.707Z,46.81
2017-06-27T04:11:57.642Z,46.71
2017-06-27T04:12:57.578Z,46.69
2017-06-27T04:13:57.517Z,46.9
2017-06-27T04:14:57.454Z,46.59
2017-06-27T04:15:57.391Z,46.13
2017-06-27T04:16:57.330Z,46.2
2017-06-27T04:17:57.265Z,46.42
2017-06-27T04:18:57.202Z,46.11
2017-06-27T04:19:57.140Z,45.62
2017-06-27T04:20:57.078Z,45.72
2017-06-27T04:21:57.014Z,46.11
2017-06-27T04:22:56.952Z,45.82
2017-06-27T04:23:56.890Z,45.62
2017-06-27T04:24:56.826Z,45.53
2017-06-27T04:25:56.441Z,45.24
2017-06-27T04:26:56.709Z,45.53
2017-06-27T04:27:56.636Z,45.43
2017-06-27T04:28:56.574Z,45.24
2017-06-27T04:29:56.513Z,45.62
2017-06-27T04:30:56.118Z,45.62
2017-06-27T04:31:56.389Z,45.14
2017-06-27T04:32:56.190Z,45.14
2017-06-27T04:33:56.247Z,45.14
2017-06-27T04:34:56.185Z,45.24
2017-06-27T04:35:56.118Z,45.24
2017-06-27T04:36:56.054Z,45.43
2017-06-27T04:37:55.990Z,44.85
2017-06-27T04:38:55.929Z,44.85
2017-06-27T04:39:55.865Z,44.76
2017-06-27T04:40:55.803Z,44.85
2017-06-27T04:41:55.412Z,44.76
2017-06-27T04:42:55.676Z,44.37
2017-06-27T04:43:55.613Z,44.76
2017-06-27T04:44:55.553Z,44.66
2017-06-27T04:45:55.488Z,44.56
2017-06-27T04:46:55.425Z,44.66
2017-06-27T04:47:55.364Z,44.66
2017-06-27T04:48:55.299Z,44.85
2017-06-27T04:49:54.909Z,44.85
2017-06-27T04:50:55.175Z,44.85
2017-06-27T04:51:55.114Z,44.37
2017-06-27T04:52:55.049Z,44.46
2017-06-27T04:53:54.984Z,43.98
2017-06-27T04:54:54.921Z,44.18
2017-06-27T04:55:54.862Z,44.18
2017-06-27T04:56:54.796Z,43.6
2017-06-27T04:57:54.733Z,43.79
2017-06-27T04:58:54.672Z,43.79
2017-06-27T04:59:54.606Z,44.27
2017-06-27T05:00:54.546Z,44.08
2017-06-27T05:01:54.482Z,44.18
2017-06-27T05:02:54.418Z,44.18
2017-06-27T05:03:54.354Z,44.08
2017-06-27T05:04:54.291Z,43.79
2017-06-27T05:05:54.234Z,44.27
2017-06-27T05:06:54.166Z,43.89
2017-06-27T05:07:54.101Z,43.79
2017-06-27T05:08:54.040Z,43.89
2017-06-27T05:09:53.978Z,43.98
2017-06-27T05:10:53.923Z,43.89
2017-06-27T05:11:53.853Z,44.08
2017-06-27T05:12:53.832Z,43.98
2017-06-27T05:13:53.733Z,44.08
2017-06-27T05:14:53.661Z,43.89
2017-06-27T05:15:53.849Z,44.08
2017-06-27T05:16:53.538Z,44.27
2017-06-27T05:17:53.473Z,44.37
2017-06-27T05:18:53.408Z,43.79
2017-06-27T05:19:53.350Z,44.18
2017-06-27T05:20:53.285Z,43.89
2017-06-27T05:21:53.221Z,43.89
2017-06-27T05:22:53.157Z,43.79
2017-06-27T05:23:53.094Z,43.89
2017-06-27T05:24:53.032Z,43.89
2017-06-27T05:25:52.966Z,43.6
2017-06-27T05:26:52.906Z,43.5
2017-06-27T05:27:52.842Z,43.31
2017-06-27T05:28:52.778Z,43.5
2017-06-27T05:29:52.716Z,43.41
2017-06-27T05:30:52.652Z,43.41
2017-06-27T05:31:52.590Z,43.31
2017-06-27T05:32:52.527Z,43.5
2017-06-27T05:33:52.463Z,43.7
2017-06-27T05:34:52.401Z,43.41
2017-06-27T05:35:52.338Z,43.31
2017-06-27T05:36:52.272Z,43.7
2017-06-27T05:37:52.210Z,43.31
2017-06-27T05:38:51.825Z,43.5
2017-06-27T05:39:52.083Z,43.21
2017-06-27T05:40:52.022Z,43.12
2017-06-27T05:41:51.631Z,43.21
2017-06-27T05:42:51.896Z,43.31
2017-06-27T05:43:51.504Z,43.12
2017-06-27T05:44:51.766Z,43.31
2017-06-27T05:45:51.705Z,43.12
2017-06-27T05:46:51.644Z,43.6
2017-06-27T05:47:51.580Z,43.31
2017-06-27T05:48:51.515Z,43.02
2017-06-27T05:49:51.453Z,43.6
2017-06-27T05:50:51.392Z,43.12
2017-06-27T05:51:51.326Z,43.21
2017-06-27T05:52:51.264Z,43.5
2017-06-27T05:53:51.204Z,42.83
2017-06-27T05:54:51.148Z,43.5
2017-06-27T05:55:51.073Z,43.41
2017-06-27T05:56:50.685Z,43.31
2017-06-27T05:57:50.949Z,43.5
2017-06-27T05:58:50.885Z,42.93
2017-06-27T05:59:50.822Z,43.21
2017-06-27T06:00:50.761Z,43.12
2017-06-27T06:01:50.696Z,43.21
2017-06-27T06:02:50.631Z,43.6
2017-06-27T06:03:50.570Z,43.31
2017-06-27T06:04:50.505Z,43.21
2017-06-27T06:05:50.443Z,43.12
2017-06-27T06:06:50.378Z,43.19
2017-06-27T06:07:50.316Z,43.12
2017-06-27T06:08:50.255Z,43.21
2017-06-27T06:09:50.189Z,42.93
2017-06-27T06:10:50.131Z,43.02
2017-06-27T06:11:50.063Z,43.12
2017-06-27T06:12:50.000Z,43.02
2017-06-27T06:13:49.936Z,43.1
2017-06-27T06:14:49.874Z,43.02
2017-06-27T06:15:49.811Z,42.73
2017-06-27T06:16:49.747Z,42.73
2017-06-27T06:17:49.356Z,42.73
2017-06-27T06:18:49.621Z,42.83
2017-06-27T06:19:49.558Z,42.63
2017-06-27T06:20:49.497Z,42.83
2017-06-27T06:21:49.433Z,42.71
2017-06-27T06:22:49.375Z,42.63
2017-06-27T06:23:49.306Z,42.52
2017-06-27T06:24:49.268Z,42.52
2017-06-27T06:25:49.179Z,42.54
2017-06-27T06:26:49.123Z,42.93
2017-06-27T06:27:49.052Z,42.73
2017-06-27T06:28:48.991Z,42.25
2017-06-27T06:29:48.927Z,42.8
2017-06-27T06:30:48.861Z,42.63
2017-06-27T06:31:48.801Z,42.42
2017-06-27T06:32:48.738Z,42.44
2017-06-27T06:33:48.678Z,42.05
2017-06-27T06:34:48.609Z,42.03
2017-06-27T06:35:48.547Z,42.13
2017-06-27T06:36:48.484Z,41.75
2017-06-27T06:37:48.418Z,42.15
2017-06-27T06:38:48.357Z,41.75
2017-06-27T06:39:47.967Z,41.77
2017-06-27T06:40:48.256Z,41.96
2017-06-27T06:41:47.899Z,41.86
2017-06-27T06:42:48.104Z,41.86
2017-06-27T06:43:48.042Z,41.48
2017-06-27T06:44:48.180Z,41.38
2017-06-27T06:45:47.919Z,41.36
2017-06-27T06:46:47.850Z,41.57
2017-06-27T06:47:47.789Z,41.57
2017-06-27T06:48:47.724Z,41.46
2017-06-27T06:49:47.660Z,41.57
2017-06-27T06:50:47.600Z,41.57
2017-06-27T06:51:47.535Z,41.19
2017-06-27T06:52:47.474Z,41.48
2017-06-27T06:53:47.085Z,41.57
2017-06-27T06:54:47.349Z,41.38
2017-06-27T06:55:47.288Z,41.48
2017-06-27T06:56:46.895Z,41.57
2017-06-27T06:57:47.157Z,41.38
2017-06-27T06:58:47.095Z,41.57
2017-06-27T06:59:47.031Z,41.09
2017-06-27T07:00:46.967Z,40.99
2017-06-27T07:01:46.905Z,41.28
2017-06-27T07:02:46.841Z,41.57
2017-06-27T07:03:46.778Z,41.67
2017-06-27T07:04:46.716Z,40.99
2017-06-27T07:05:46.652Z,41.48
2017-06-27T07:06:46.590Z,41.19
2017-06-27T07:07:46.527Z,41.57
2017-06-27T07:08:46.461Z,41.57
2017-06-27T07:09:46.400Z,41.38
2017-06-27T07:10:46.338Z,41.19
2017-06-27T07:11:46.271Z,41.48
2017-06-27T07:12:46.210Z,40.61
2017-06-27T07:13:46.148Z,41.09
2017-06-27T07:14:46.085Z,41.19
2017-06-27T07:15:45.693Z,41.48
2017-06-27T07:16:45.957Z,41.28
2017-06-27T07:17:45.895Z,41.09
2017-06-27T07:18:45.830Z,41.19
2017-06-27T07:19:45.441Z,41.57
2017-06-27T07:20:45.405Z,41.28
2017-06-27T07:21:45.315Z,41.48
2017-06-27T07:22:45.581Z,41.19
2017-06-27T07:23:45.517Z,40.9
2017-06-27T07:24:45.654Z,41.38
2017-06-27T07:25:45.389Z,41.19
2017-06-27T07:26:45.326Z,40.99
2017-06-27T07:27:45.265Z,41.09
2017-06-27T07:28:45.203Z,41.19
2017-06-27T07:29:45.136Z,41.09
2017-06-27T07:30:45.076Z,40.99
2017-06-27T07:31:45.015Z,40.99
2017-06-27T07:32:44.950Z,40.99
2017-06-27T07:33:44.882Z,41.09
2017-06-27T07:34:44.823Z,40.99
2017-06-27T07:35:44.760Z,41.09
2017-06-27T07:36:44.695Z,41.09
2017-06-27T07:37:44.633Z,41.09
2017-06-27T07:38:44.571Z,41.09
2017-06-27T07:39:44.506Z,40.99
2017-06-27T07:40:44.459Z,41.28
2017-06-27T07:41:44.386Z,40.9
2017-06-27T07:42:44.314Z,40.9
2017-06-27T07:43:44.255Z,41.38
2017-06-27T07:44:44.204Z,41.57
2017-06-27T07:45:44.125Z,40.9
2017-06-27T07:46:43.735Z,40.9
2017-06-27T07:47:43.671Z,41.09
2017-06-27T07:48:43.936Z,40.99
2017-06-27T07:49:43.873Z,41.09
2017-06-27T07:50:43.811Z,41.09
2017-06-27T07:51:43.746Z,40.7
2017-06-27T07:52:43.694Z,41.09
2017-06-27T07:53:43.630Z,41.28
2017-06-27T07:54:43.558Z,40.99
2017-06-27T07:55:43.497Z,40.61
2017-06-27T07:56:43.431Z,41.38
2017-06-27T07:57:43.376Z,41.57
2017-06-27T07:58:43.307Z,40.8
2017-06-27T07:59:43.243Z,40.9
2017-06-27T08:00:43.179Z,41.09
2017-06-27T08:01:43.117Z,40.99
2017-06-27T08:02:43.055Z,40.99
2017-06-27T08:03:42.991Z,41.28
2017-06-27T08:04:42.927Z,41.28
2017-06-27T08:05:43.115Z,41.28
2017-06-27T08:06:42.813Z,41.57
2017-06-27T08:07:42.751Z,41.48
2017-06-27T08:08:42.676Z,42.54
2017-06-27T08:09:42.612Z,42.25
2017-06-27T08:10:42.805Z,42.36
2017-06-27T08:11:42.487Z,42.83
2017-06-27T08:12:42.423Z,43.31
2017-06-27T08:13:42.358Z,43.6
2017-06-27T08:14:42.306Z,44.27
2017-06-27T08:15:42.250Z,43.89
2017-06-27T08:16:42.186Z,44.1
2017-06-27T08:17:42.107Z,43.72
2017-06-27T08:18:42.055Z,44.2
2017-06-27T08:19:41.982Z,44.97
2017-06-27T08:20:41.603Z,44.59
2017-06-27T08:21:41.855Z,44.59
2017-06-27T08:22:41.805Z,45.17
2017-06-27T08:23:41.731Z,44.97
2017-06-27T08:24:41.667Z,45.07
2017-06-27T08:25:41.620Z,44.87
2017-06-27T08:26:41.545Z,45.45
2017-06-27T08:27:41.677Z,45.55
2017-06-27T08:28:41.416Z,46.03
2017-06-27T08:29:41.351Z,45.75
2017-06-27T08:30:41.297Z,46.13
2017-06-27T08:31:41.226Z,46.23
2017-06-27T08:32:41.171Z,46.23
2017-06-27T08:33:41.101Z,46.23
2017-06-27T08:34:41.040Z,46.42
2017-06-27T08:35:40.975Z,46.61
2017-06-27T08:36:40.915Z,46.73
2017-06-27T08:37:40.851Z,46.71
2017-06-27T08:38:40.785Z,46.61
2017-06-27T08:39:40.725Z,46.61
2017-06-27T08:40:40.765Z,46.71
2017-06-27T08:41:40.958Z,47
2017-06-27T08:42:40.537Z,46.81
2017-06-27T08:43:40.472Z,47
2017-06-27T08:44:40.418Z,47.29
2017-06-27T08:45:40.349Z,47.41
2017-06-27T08:46:40.388Z,47.7
2017-06-27T08:47:40.226Z,47.7
2017-06-27T08:48:40.159Z,47.5
2017-06-27T08:49:40.098Z,47.7
2017-06-27T08:50:40.036Z,47.89
2017-06-27T08:51:39.971Z,47.5
2017-06-27T08:52:39.920Z,47.8
2017-06-27T08:53:39.845Z,47.8
2017-06-27T08:54:39.783Z,47.7
2017-06-27T08:55:39.721Z,48.18
2017-06-27T08:56:39.660Z,48.08
2017-06-27T08:57:39.594Z,48.47
2017-06-27T08:58:39.536Z,48.08
2017-06-27T08:59:39.471Z,48.37
2017-06-27T09:00:39.412Z,48.08
2017-06-27T09:01:39.348Z,48.86
2017-06-27T09:02:38.957Z,48.18
2017-06-27T09:03:39.222Z,48.28
2017-06-27T09:04:39.159Z,48.57
2017-06-27T09:05:39.097Z,48.66
2017-06-27T09:06:39.035Z,48.28
2017-06-27T09:07:38.975Z,48.47
2017-06-27T09:08:38.912Z,47.5
2017-06-27T09:09:38.847Z,48.08
2017-06-27T09:10:38.787Z,46.83
2017-06-27T09:11:38.723Z,47.6
2017-06-27T09:12:38.663Z,48.08
2017-06-27T09:13:38.597Z,48.08
2017-06-27T09:14:38.535Z,48.76
2017-06-27T09:15:38.474Z,48.18
2017-06-27T09:16:38.410Z,48.37
2017-06-27T09:17:38.597Z,48.08
2017-06-27T09:18:38.285Z,48.18
2017-06-27T09:19:38.221Z,47.99
2017-06-27T09:20:38.161Z,47.99
2017-06-27T09:21:38.099Z,48.28
2017-06-27T09:22:38.185Z,47.89
2017-06-27T09:23:37.977Z,47.41
2017-06-27T09:24:37.912Z,48.18
2017-06-27T09:25:37.862Z,48.47
2017-06-27T09:26:37.786Z,48.66
2017-06-27T09:27:37.724Z,48.18
2017-06-27T09:28:37.664Z,48.37
2017-06-27T09:29:37.600Z,48.57
2017-06-27T09:30:37.211Z,48.37
2017-06-27T09:31:37.474Z,48.57
2017-06-27T09:32:37.412Z,48.18
2017-06-27T09:33:37.349Z,48.86
2017-06-27T09:34:37.305Z,47.6
2017-06-27T09:35:37.241Z,47.8
2017-06-27T09:36:36.836Z,48.08
2017-06-27T09:37:37.101Z,48.37
2017-06-27T09:38:37.039Z,48.37
2017-06-27T09:39:36.980Z,48.37
2017-06-27T09:40:37.067Z,48.47
2017-06-27T09:41:36.851Z,48.18
2017-06-27T09:42:36.796Z,48.01
2017-06-27T09:43:36.732Z,48.76
2017-06-27T09:44:36.668Z,47.5
2017-06-27T09:45:36.602Z,48.47
2017-06-27T09:46:36.541Z,48.39
2017-06-27T09:47:36.478Z,47.99
2017-06-27T09:48:36.415Z,47.89
2017-06-27T09:49:36.380Z,47.6
2017-06-27T09:50:36.303Z,47.89
2017-06-27T09:51:36.229Z,47.81
2017-06-27T09:52:36.167Z,47.6
2017-06-27T09:53:36.106Z,47.99
2017-06-27T09:54:36.045Z,48.39
2017-06-27T09:55:35.983Z,48.59
2017-06-27T09:56:35.920Z,48.49
2017-06-27T09:57:35.855Z,48.39
2017-06-27T09:58:35.794Z,48.49
2017-06-27T09:59:35.736Z,48.59
2017-06-27T10:00:35.674Z,48.59
2017-06-27T10:01:35.608Z,48.59
2017-06-27T10:02:35.221Z,48.39
2017-06-27T10:03:35.487Z,48.79
2017-06-27T10:04:35.096Z,48.49
2017-06-27T10:05:35.360Z,47.72
2017-06-27T10:06:34.970Z,48.59
2017-06-27T10:07:35.237Z,46.85
2017-06-27T10:08:35.175Z,45.79
2017-06-27T10:09:34.786Z,43.37
2017-06-27T10:10:35.051Z,42.87
2017-06-27T10:11:34.985Z,41.71
2017-06-27T10:12:34.937Z,41.42
2017-06-27T10:13:34.862Z,41.35
2017-06-27T10:14:34.803Z,41.52
2017-06-27T10:15:34.839Z,41.23
2017-06-27T10:16:34.350Z,40.45
2017-06-27T10:17:34.628Z,40.55
2017-06-27T10:18:34.549Z,41.13
2017-06-27T10:19:34.503Z,40.55
2017-06-27T10:20:34.582Z,40.65
2017-06-27T10:21:34.367Z,40.36
2017-06-27T10:22:34.305Z,40.17
2017-06-27T10:23:34.240Z,40.26
2017-06-27T10:24:34.177Z,40.36
2017-06-27T10:25:34.115Z,40.45
2017-06-27T10:26:33.728Z,40.26
2017-06-27T10:27:33.667Z,40.45
2017-06-27T10:28:33.600Z,40.26
2017-06-27T10:29:33.868Z,40.45
2017-06-27T10:30:33.804Z,40.07
2017-06-27T10:31:33.744Z,40.17
2017-06-27T10:32:33.678Z,39.97
2017-06-27T10:33:33.617Z,39.87
2017-06-27T10:34:33.553Z,39.78
2017-06-27T10:35:33.491Z,40.07
2017-06-27T10:36:33.429Z,40.07
2017-06-27T10:37:33.377Z,40.17
2017-06-27T10:38:33.303Z,39.59
2017-06-27T10:39:32.914Z,40.07
2017-06-27T10:40:33.180Z,39.59
2017-06-27T10:41:32.790Z,39.78
2017-06-27T10:42:32.726Z,39.97
2017-06-27T10:43:32.993Z,40.07
2017-06-27T10:44:32.933Z,40.17
2017-06-27T10:45:32.868Z,40.07
2017-06-27T10:46:32.806Z,39.87
2017-06-27T10:47:32.745Z,39.87
2017-06-27T10:48:32.682Z,40.26
2017-06-27T10:49:32.620Z,39.69
2017-06-27T10:50:32.558Z,39.69
2017-06-27T10:51:32.504Z,39.87
2017-06-27T10:52:32.432Z,39.59
2017-06-27T10:53:32.371Z,39.39
2017-06-27T10:54:32.310Z,39.69
2017-06-27T10:55:32.244Z,39.69
2017-06-27T10:56:32.181Z,39.39
2017-06-27T10:57:31.791Z,39.59
2017-06-27T10:58:32.071Z,39.69
2017-06-27T10:59:31.994Z,39.39
2017-06-27T11:00:31.931Z,39.59
2017-06-27T11:01:31.868Z,39.39
2017-06-27T11:02:31.805Z,39.49
2017-06-27T11:03:31.742Z,39.78
2017-06-27T11:04:31.681Z,39.69
2017-06-27T11:05:31.619Z,39.78
2017-06-27T11:06:31.557Z,39.69
2017-06-27T11:07:31.508Z,39.59
2017-06-27T11:08:31.431Z,39.69
2017-06-27T11:09:31.045Z,39.87
2017-06-27T11:10:31.308Z,40.17
2017-06-27T11:11:31.246Z,40.07
2017-06-27T11:12:31.189Z,40.07
2017-06-27T11:13:31.126Z,39.78
2017-06-27T11:14:31.056Z,39.87
2017-06-27T11:15:31.007Z,40.26
2017-06-27T11:16:30.932Z,39.97
2017-06-27T11:17:30.544Z,39.97
2017-06-27T11:18:30.821Z,40.17
2017-06-27T11:19:30.744Z,40.26
2017-06-27T11:20:30.518Z,40.45
2017-06-27T11:21:30.618Z,40.45
2017-06-27T11:22:30.230Z,40.26
2017-06-27T11:23:30.496Z,40.55
2017-06-27T11:24:30.434Z,41.13
2017-06-27T11:25:30.371Z,41.52
2017-06-27T11:26:30.308Z,40.45
2017-06-27T11:27:30.245Z,40.45
2017-06-27T11:28:30.184Z,41.13
2017-06-27T11:29:30.125Z,40.45
2017-06-27T11:30:30.666Z,40.26
2017-06-27T11:31:29.995Z,41.42
2017-06-27T11:32:29.932Z,41.13
2017-06-27T11:33:29.874Z,41.61
2017-06-27T11:34:29.812Z,40.65
2017-06-27T11:35:29.747Z,41.81
2017-06-27T11:36:29.703Z,41.61
2017-06-27T11:37:29.622Z,41.52
2017-06-27T11:38:29.561Z,41.33
2017-06-27T11:39:29.497Z,41.13
2017-06-27T11:40:29.438Z,41.52
2017-06-27T11:41:29.386Z,41.81
2017-06-27T11:42:29.309Z,41.61
2017-06-27T11:43:29.246Z,41.81
2017-06-27T11:44:29.186Z,41.52
2017-06-27T11:45:29.123Z,41.81
2017-06-27T11:46:29.067Z,41.33
2017-06-27T11:47:29.006Z,40.17
2017-06-27T11:48:28.937Z,40.26
2017-06-27T11:49:28.885Z,40.07
2017-06-27T11:50:28.814Z,39.97
2017-06-27T11:51:28.750Z,40.26
2017-06-27T11:52:28.710Z,40.45
2017-06-27T11:53:28.625Z,40.17
2017-06-27T11:54:28.563Z,39.97
2017-06-27T11:55:28.502Z,40.17
2017-06-27T11:56:28.437Z,39.87
2017-06-27T11:57:28.377Z,40.17
2017-06-27T11:58:28.314Z,39.87
2017-06-27T11:59:28.251Z,39.78
2017-06-27T12:00:28.190Z,40.07
2017-06-27T12:01:28.245Z,39.78
2017-06-27T12:02:28.070Z,39.49
2017-06-27T12:03:28.007Z,39.78
2017-06-27T12:04:27.612Z,39.49
2017-06-27T12:05:27.982Z,39.97
2017-06-27T12:06:27.816Z,39.87
2017-06-27T12:07:28.130Z,40.07
2017-06-27T12:08:27.691Z,40.17
2017-06-27T12:09:27.892Z,39.87
2017-06-27T12:10:27.665Z,39.87
2017-06-27T12:11:27.551Z,40.26
2017-06-27T12:12:27.443Z,40.26
2017-06-27T12:13:27.387Z,40.07
2017-06-27T12:14:27.465Z,40.17
2017-06-27T12:15:26.927Z,39.97
2017-06-27T12:16:27.192Z,40.26
2017-06-27T12:17:27.244Z,39.97
2017-06-27T12:18:27.067Z,39.97
2017-06-27T12:19:27.005Z,39.87
2017-06-27T12:20:26.951Z,39.87
2017-06-27T12:21:26.882Z,39.97
2017-06-27T12:22:26.817Z,39.69
2017-06-27T12:23:26.577Z,39.87
2017-06-27T12:24:26.838Z,40.65
2017-06-27T12:25:26.646Z,40.26
2017-06-27T12:26:26.766Z,40.36
2017-06-27T12:27:26.507Z,40.55
2017-06-27T12:28:26.494Z,40.07
2017-06-27T12:29:26.065Z,39.87
2017-06-27T12:30:26.609Z,39.78
2017-06-27T12:31:26.599Z,39.59
2017-06-27T12:32:26.216Z,39.78
2017-06-27T12:33:26.179Z,39.69
2017-06-27T12:34:26.102Z,39.69
2017-06-27T12:35:26.067Z,39.59
2017-06-27T12:36:25.946Z,39.69
2017-06-27T12:37:25.571Z,39.69
2017-06-27T12:38:25.843Z,39.78
2017-06-27T12:39:25.443Z,39.87
2017-06-27T12:40:25.701Z,39.59
2017-06-27T12:41:25.648Z,39.59
2017-06-27T12:42:25.578Z,39.59
2017-06-27T12:43:25.514Z,39.78
2017-06-27T12:44:25.450Z,39.39
2017-06-27T12:45:25.084Z,39.59
2017-06-27T12:46:25.328Z,39.49
2017-06-27T12:47:25.268Z,39.49
2017-06-27T12:48:25.242Z,39.78
2017-06-27T12:49:25.150Z,39.49
2017-06-27T12:50:25.105Z,39.39
2017-06-27T12:51:25.015Z,39.39
2017-06-27T12:52:24.953Z,39.39
2017-06-27T12:53:24.890Z,39.59
2017-06-27T12:54:24.541Z,39.78